Time;durP1;ratioP1;P1;durP2;ratioP2;P2;SDS_P1;SDS_P2;PMS_P1;PMS_P2;Temp;Humidity;BMP_temperature;BMP_pressure;BME280_temperature;BME280_humidity;BME280_pressure;Samples;Min_cycle;Max_cycle;Signal;HPM_P1;HPM_P2
2022/06/08 00:00:01;;;;;;;17.73;9.70;;;;;;;;;;4971183;28;20051;-74
2022/06/08 00:02:29;;;;;;;19.15;10.10;;;;;;;;;;4970158;28;20039;-70
2022/06/08 00:04:55;;;;;;;15.88;9.80;;;;;;;;;;4969127;28;20457;-72
2022/06/08 00:07:21;;;;;;;18.20;10.10;;;;;;;;;;4970182;28;20039;-74
2022/06/08 00:09:47;;;;;;;17.77;9.95;;;;;;;;;;4971798;28;20085;-75
2022/06/08 00:12:14;;;;;;;19.17;10.10;;;;;;;;;;4969795;28;20125;-73
2022/06/08 00:14:41;;;;;;;21.50;11.02;;;;;;;;;;4970525;28;20084;-72
2022/06/08 00:17:07;;;;;;;18.20;10.30;;;;;;;;;;4961308;28;20070;-76
2022/06/08 00:19:33;;;;;;;21.65;9.75;;;;;;;;;;4970727;28;20054;-73
2022/06/08 00:21:59;;;;;;;20.15;9.85;;;;;;;;;;4964994;28;20051;-74
2022/06/08 00:24:25;;;;;;;19.83;11.20;;;;;;;;;;4970229;28;20043;-74
2022/06/08 00:26:51;;;;;;;25.00;10.75;;;;;;;;;;4964461;28;20066;-75
2022/06/08 00:29:18;;;;;;;20.63;10.50;;;;;;;;;;4974429;28;20042;-74
2022/06/08 00:31:43;;;;;;;19.48;9.93;;;;;;;;;;4970564;28;20058;-73
2022/06/08 00:34:09;;;;;;;25.80;11.90;;;;;;;;;;4968688;28;20055;-73
2022/06/08 00:36:35;;;;;;;21.65;11.43;;;;;;;;;;4971996;28;20439;-73
2022/06/08 00:39:01;;;;;;;24.73;11.25;;;;;;;;;;4972055;28;20050;-76
2022/06/08 00:41:56;;;;;;;24.00;10.27;;;;;;;;;;4966080;28;20347;-72
2022/06/08 00:44:27;;;;;;;19.27;10.70;;;;;;;;;;4974029;28;20066;-73
2022/06/08 00:46:54;;;;;;;21.83;11.05;;;;;;;;;;4969736;28;20134;-72
2022/06/08 00:49:49;;;;;;;20.17;10.65;;;;;;;;;;4975310;28;20051;-72
2022/06/08 00:52:16;;;;;;;19.02;10.52;;;;;;;;;;4964314;28;20046;-73
2022/06/08 00:54:47;;;;;;;23.88;11.73;;;;;;;;;;4973560;28;20636;-72
2022/06/08 00:57:17;;;;;;;18.95;10.73;;;;;;;;;;4967900;28;20405;-72
2022/06/08 00:59:48;;;;;;;29.15;12.68;;;;;;;;;;4970680;28;20069;-71
2022/06/08 01:02:14;;;;;;;24.13;12.07;;;;;;;;;;4970207;28;20441;-71
2022/06/08 01:04:40;;;;;;;16.10;10.40;;;;;;;;;;4969670;28;20054;-73
2022/06/08 01:07:06;;;;;;;22.00;10.57;;;;;;;;;;4967093;28;20050;-71
2022/06/08 01:09:39;;;;;;;18.90;11.50;;;;;;;;;;4969816;28;20139;-71
2022/06/08 01:12:24;;;;;;;19.73;11.00;;;;;;;;;;4963914;28;20055;-71
2022/06/08 01:14:50;;;;;;;23.02;11.02;;;;;;;;;;4960699;28;20117;-71
2022/06/08 01:17:18;;;;;;;20.65;11.15;;;;;;;;;;4970985;28;20484;-71
2022/06/08 01:19:47;;;;;;;19.35;12.00;;;;;;;;;;4962322;28;20051;-72
2022/06/08 01:22:17;;;;;;;27.88;12.05;;;;;;;;;;4969261;28;20062;-72
2022/06/08 01:24:47;;;;;;;21.23;11.63;;;;;;;;;;4969858;28;20137;-71
2022/06/08 01:27:22;;;;;;;24.42;11.02;;;;;;;;;;4970973;28;20050;-72
2022/06/08 01:29:57;;;;;;;26.20;11.80;;;;;;;;;;4970226;28;20617;-70
2022/06/08 01:32:41;;;;;;;18.88;11.13;;;;;;;;;;4968484;28;20503;-72
2022/06/08 01:35:34;;;;;;;19.42;10.60;;;;;;;;;;4970686;28;20440;-70
2022/06/08 01:38:21;;;;;;;20.38;9.82;;;;;;;;;;4968505;28;20122;-72
2022/06/08 01:41:02;;;;;;;18.33;9.20;;;;;;;;;;4966637;28;20051;-72
2022/06/08 01:43:41;;;;;;;18.50;8.50;;;;;;;;;;4970350;28;20109;-71
2022/06/08 01:46:18;;;;;;;15.18;8.20;;;;;;;;;;4961291;28;20371;-72
2022/06/08 01:49:09;;;;;;;15.63;7.80;;;;;;;;;;4969987;28;20412;-72
2022/06/08 01:52:13;;;;;;;20.20;9.02;;;;;;;;;;4973456;28;20131;-72
2022/06/08 01:55:00;;;;;;;16.23;8.20;;;;;;;;;;4963447;28;20747;-71
2022/06/08 01:57:38;;;;;;;16.35;8.38;;;;;;;;;;4965657;28;20053;-71
2022/06/08 02:00:07;;;;;;;18.98;8.38;;;;;;;;;;4971177;28;20047;-71
2022/06/08 02:02:33;;;;;;;17.70;8.68;;;;;;;;;;4969748;28;20050;-70
2022/06/08 02:05:13;;;;;;;22.58;9.25;;;;;;;;;;4969337;28;20047;-73
2022/06/08 02:07:45;;;;;;;22.48;9.23;;;;;;;;;;4967489;28;20412;-71
2022/06/08 02:10:35;;;;;;;16.83;9.23;;;;;;;;;;4960346;28;20042;-71
2022/06/08 02:13:16;;;;;;;24.00;8.80;;;;;;;;;;4969414;28;20370;-72
2022/06/08 02:15:46;;;;;;;15.30;8.60;;;;;;;;;;4961762;28;20129;-73
2022/06/08 02:18:27;;;;;;;19.55;8.75;;;;;;;;;;4970010;28;20046;-76
2022/06/08 02:21:23;;;;;;;15.32;8.63;;;;;;;;;;4960376;28;20413;-73
2022/06/08 02:23:57;;;;;;;16.35;8.50;;;;;;;;;;4967041;28;20071;-71
2022/06/08 02:26:23;;;;;;;;;;;;;;;;;;4971972;28;20055;-73
2022/06/08 02:29:21;;;;;;;16.48;8.60;;;;;;;;;;4970700;28;20248;-71
2022/06/08 02:31:53;;;;;;;20.52;8.27;;;;;;;;;;4968237;28;20497;-72
2022/06/08 02:34:41;;;;;;;20.15;9.88;;;;;;;;;;4970928;28;20047;-72
2022/06/08 02:37:12;;;;;;;24.20;9.52;;;;;;;;;;4970645;28;20038;-70
2022/06/08 02:39:46;;;;;;;16.80;9.63;;;;;;;;;;4969704;28;20042;-72
2022/06/08 02:42:24;;;;;;;19.80;8.38;;;;;;;;;;4972981;28;20121;-73
2022/06/08 02:44:54;;;;;;;20.08;9.80;;;;;;;;;;4971715;28;20047;-71
2022/06/08 02:47:29;;;;;;;20.15;10.93;;;;;;;;;;4961364;28;20042;-71
2022/06/08 02:50:02;;;;;;;19.05;9.60;;;;;;;;;;4971373;28;20422;-72
2022/06/08 02:52:29;;;;;;;19.95;11.13;;;;;;;;;;4974135;28;20060;-71
2022/06/08 02:54:56;;;;;;;20.85;11.30;;;;;;;;;;4970067;28;20091;-71
2022/06/08 02:57:39;;;;;;;22.50;11.85;;;;;;;;;;4970738;28;20039;-71
2022/06/08 03:00:15;;;;;;;21.70;12.05;;;;;;;;;;4970877;28;20604;-71
2022/06/08 03:03:09;;;;;;;23.02;12.20;;;;;;;;;;4959908;28;20096;-71
2022/06/08 03:05:43;;;;;;;;;;;;;;;;;;4970036;28;20521;-70
2022/06/08 03:08:23;;;;;;;27.85;12.77;;;;;;;;;;4969912;28;19933;-71
2022/06/08 03:10:51;;;;;;;20.92;13.32;;;;;;;;;;4969138;28;20066;-72
2022/06/08 03:13:22;;;;;;;26.30;13.82;;;;;;;;;;4968169;28;20129;-70
2022/06/08 03:15:54;;;;;;;20.52;13.05;;;;;;;;;;4970294;28;20134;-71
2022/06/08 03:18:21;;;;;;;23.65;13.32;;;;;;;;;;4966969;28;20043;-75
2022/06/08 03:20:46;;;;;;;23.70;13.63;;;;;;;;;;4961467;28;20061;-73
2022/06/08 03:23:13;;;;;;;22.35;14.00;;;;;;;;;;4971933;28;20054;-71
2022/06/08 03:25:39;;;;;;;25.25;14.55;;;;;;;;;;4966492;28;20500;-71
2022/06/08 03:28:05;;;;;;;21.80;13.50;;;;;;;;;;4967971;28;20061;-73
2022/06/08 03:30:31;;;;;;;29.08;14.60;;;;;;;;;;4967739;28;20496;-71
2022/06/08 03:32:57;;;;;;;24.92;13.73;;;;;;;;;;4967832;28;20061;-71
2022/06/08 03:35:23;;;;;;;23.13;13.95;;;;;;;;;;4955405;28;20043;-70
2022/06/08 03:37:49;;;;;;;27.27;14.07;;;;;;;;;;4962156;28;20054;-71
2022/06/08 03:40:16;;;;;;;22.55;12.95;;;;;;;;;;4968891;28;20574;-72
2022/06/08 03:42:42;;;;;;;23.42;14.00;;;;;;;;;;4970028;28;20522;-71
2022/06/08 03:45:09;;;;;;;24.20;13.80;;;;;;;;;;4968774;28;20216;-69
2022/06/08 03:47:41;;;;;;;24.42;13.35;;;;;;;;;;4969235;28;20049;-69
2022/06/08 03:50:11;;;;;;;19.48;12.98;;;;;;;;;;4970537;28;20404;-70
2022/06/08 03:52:42;;;;;;;19.45;13.43;;;;;;;;;;4987705;28;20357;-72
2022/06/08 03:55:10;;;;;;;22.85;13.57;;;;;;;;;;4969779;28;20054;-73
2022/06/08 03:57:37;;;;;;;25.92;14.20;;;;;;;;;;4969171;28;20051;-71
2022/06/08 04:00:05;;;;;;;23.15;13.90;;;;;;;;;;4968163;28;20043;-71
2022/06/08 04:02:32;;;;;;;20.65;13.05;;;;;;;;;;4960167;28;20081;-69
2022/06/08 04:04:57;;;;;;;25.27;13.80;;;;;;;;;;4962819;28;20389;-71
2022/06/08 04:07:23;;;;;;;23.50;14.02;;;;;;;;;;4966477;28;20062;-69
2022/06/08 04:09:49;;;;;;;26.15;13.85;;;;;;;;;;4969050;28;20348;-73
2022/06/08 04:12:16;;;;;;;23.17;13.50;;;;;;;;;;4972511;28;20117;-71
2022/06/08 04:14:43;;;;;;;24.67;13.10;;;;;;;;;;4971229;28;20055;-73
2022/06/08 04:17:08;;;;;;;26.13;13.77;;;;;;;;;;4969677;28;20069;-72
2022/06/08 04:19:35;;;;;;;27.50;14.68;;;;;;;;;;4967847;28;20505;-72
2022/06/08 04:22:01;;;;;;;22.90;14.35;;;;;;;;;;4959898;28;20508;-74
2022/06/08 04:24:26;;;;;;;23.55;14.60;;;;;;;;;;4960045;28;20047;-72
2022/06/08 04:26:52;;;;;;;27.27;14.15;;;;;;;;;;4973200;28;20149;-70
2022/06/08 04:29:18;;;;;;;24.98;14.55;;;;;;;;;;4971657;28;20488;-71
2022/06/08 04:31:45;;;;;;;31.48;15.43;;;;;;;;;;4971122;28;20055;-72
2022/06/08 04:34:11;;;;;;;25.98;14.63;;;;;;;;;;4963937;28;20054;-70
2022/06/08 04:36:39;;;;;;;32.03;14.77;;;;;;;;;;4965278;28;20080;-72
2022/06/08 04:39:07;;;;;;;26.05;14.60;;;;;;;;;;4961854;28;20141;-72
2022/06/08 04:41:34;;;;;;;25.48;14.85;;;;;;;;;;4963051;28;20081;-71
2022/06/08 04:46:37;;;;;;;25.00;14.68;;;;;;;;;;5684087;23;20126;-67
2022/06/08 04:49:03;;;;;;;23.90;11.98;;;;;;;;;;4967349;28;20054;-67
2022/06/08 04:51:29;;;;;;;24.00;12.18;;;;;;;;;;4971092;28;20069;-68
2022/06/08 04:53:55;;;;;;;22.63;11.68;;;;;;;;;;4970143;28;20126;-67
2022/06/08 04:56:21;;;;;;;22.92;11.65;;;;;;;;;;4970188;28;20043;-68
2022/06/08 04:58:48;;;;;;;23.17;11.80;;;;;;;;;;4971702;28;20050;-68
2022/06/08 05:01:13;;;;;;;23.40;10.95;;;;;;;;;;4969059;28;20733;-66
2022/06/08 05:03:40;;;;;;;25.00;10.95;;;;;;;;;;4970576;28;20055;-66
2022/06/08 05:06:06;;;;;;;20.58;10.15;;;;;;;;;;4969204;28;20043;-66
2022/06/08 05:08:34;;;;;;;23.85;10.98;;;;;;;;;;4967677;28;20521;-65
2022/06/08 05:11:04;;;;;;;27.02;11.88;;;;;;;;;;4966793;28;20467;-66
2022/06/08 05:13:31;;;;;;;28.08;11.63;;;;;;;;;;4967559;28;20077;-64
2022/06/08 05:15:57;;;;;;;28.08;11.00;;;;;;;;;;4966534;28;20053;-68
2022/06/08 05:18:23;;;;;;;29.23;11.48;;;;;;;;;;4972090;28;20103;-65
2022/06/08 05:20:50;;;;;;;24.85;11.43;;;;;;;;;;4968065;28;20054;-65
2022/06/08 05:23:19;;;;;;;25.27;11.82;;;;;;;;;;4966386;28;20186;-66
2022/06/08 05:25:45;;;;;;;25.25;11.13;;;;;;;;;;4971661;28;20047;-64
2022/06/08 05:28:13;;;;;;;25.65;11.70;;;;;;;;;;4972385;28;20471;-64
2022/06/08 05:30:40;;;;;;;38.45;12.95;;;;;;;;;;4975212;28;20116;-64
2022/06/08 05:33:06;;;;;;;26.75;12.48;;;;;;;;;;4970372;28;20046;-65
2022/06/08 05:35:33;;;;;;;28.67;11.82;;;;;;;;;;4973894;28;20077;-67
2022/06/08 05:37:59;;;;;;;20.17;11.43;;;;;;;;;;4971340;28;20070;-64
2022/06/08 05:40:28;;;;;;;29.52;12.63;;;;;;;;;;4981610;28;20043;-63
2022/06/08 05:42:55;;;;;;;30.77;12.25;;;;;;;;;;4970981;28;20146;-67
2022/06/08 05:45:25;;;;;;;29.15;12.15;;;;;;;;;;4972422;28;20117;-64
2022/06/08 05:47:51;;;;;;;26.27;12.02;;;;;;;;;;4968009;28;20105;-64
2022/06/08 05:50:18;;;;;;;20.92;11.75;;;;;;;;;;4969915;28;20070;-66
2022/06/08 05:52:44;;;;;;;24.75;11.77;;;;;;;;;;4969544;28;20050;-69
2022/06/08 05:55:12;;;;;;;27.05;12.15;;;;;;;;;;4973032;28;20043;-65
2022/06/08 05:57:39;;;;;;;24.52;12.15;;;;;;;;;;4969303;28;20074;-64
2022/06/08 06:00:07;;;;;;;26.27;12.10;;;;;;;;;;4969894;28;20137;-67
2022/06/08 06:02:33;;;;;;;29.67;12.00;;;;;;;;;;4971972;28;20781;-66
2022/06/08 06:04:59;;;;;;;21.58;12.15;;;;;;;;;;4969126;28;20100;-66
2022/06/08 06:07:25;;;;;;;24.73;12.75;;;;;;;;;;4968230;28;20046;-66
2022/06/08 06:09:51;;;;;;;26.05;12.25;;;;;;;;;;4969908;28;20047;-66
2022/06/08 06:12:17;;;;;;;25.98;12.23;;;;;;;;;;4968976;28;20177;-68
2022/06/08 06:14:46;;;;;;;26.27;11.38;;;;;;;;;;4971121;28;20498;-66
2022/06/08 06:17:12;;;;;;;20.30;11.48;;;;;;;;;;4973566;28;20606;-66
2022/06/08 06:19:38;;;;;;;30.08;12.07;;;;;;;;;;4968594;28;20050;-66
2022/06/08 06:22:04;;;;;;;22.38;11.60;;;;;;;;;;4959657;28;20053;-66
2022/06/08 06:24:31;;;;;;;21.80;11.73;;;;;;;;;;4967587;28;20113;-65
2022/06/08 06:26:57;;;;;;;24.77;12.27;;;;;;;;;;4974908;28;20837;-66
2022/06/08 06:29:23;;;;;;;24.60;12.63;;;;;;;;;;4970241;28;20595;-66
2022/06/08 06:31:51;;;;;;;26.92;12.57;;;;;;;;;;4971241;28;20441;-65
2022/06/08 06:34:19;;;;;;;25.50;12.27;;;;;;;;;;4970455;28;20121;-66
2022/06/08 06:36:45;;;;;;;18.77;10.77;;;;;;;;;;4972506;28;20054;-67
2022/06/08 06:39:11;;;;;;;23.08;10.00;;;;;;;;;;4971059;28;20042;-66
2022/06/08 06:41:38;;;;;;;24.55;10.90;;;;;;;;;;4966011;28;20057;-66
2022/06/08 06:44:04;;;;;;;24.45;12.02;;;;;;;;;;4962815;28;20400;-67
2022/06/08 06:46:30;;;;;;;24.45;12.40;;;;;;;;;;4964526;28;20165;-67
2022/06/08 06:48:56;;;;;;;23.33;12.77;;;;;;;;;;4969631;28;20038;-66
2022/06/08 06:51:22;;;;;;;22.17;12.50;;;;;;;;;;4966808;28;20485;-68
2022/06/08 06:53:48;;;;;;;27.70;12.52;;;;;;;;;;4969971;28;20050;-68
2022/06/08 06:56:14;;;;;;;29.90;13.48;;;;;;;;;;4968929;28;20451;-67
2022/06/08 06:58:40;;;;;;;22.50;12.50;;;;;;;;;;4968151;28;20050;-69
2022/06/08 07:01:06;;;;;;;18.38;11.20;;;;;;;;;;4967521;28;20104;-68
2022/06/08 07:03:33;;;;;;;20.40;12.68;;;;;;;;;;4967931;28;20448;-67
2022/06/08 07:05:59;;;;;;;24.30;13.40;;;;;;;;;;4956426;28;20047;-70
2022/06/08 07:08:26;;;;;;;26.10;14.27;;;;;;;;;;4968284;28;20488;-69
2022/06/08 07:13:36;;;;;;;;;;;;;;;;;;4976353;28;20066;-70
2022/06/08 07:16:02;;;;;;;23.02;12.10;;;;;;;;;;4968898;28;19949;-66
2022/06/08 07:18:27;;;;;;;27.73;13.75;;;;;;;;;;4970316;28;20045;-68
2022/06/08 07:20:54;;;;;;;25.70;13.63;;;;;;;;;;4963542;28;20403;-65
2022/06/08 07:23:20;;;;;;;29.98;13.90;;;;;;;;;;4973507;28;20496;-71
2022/06/08 07:25:45;;;;;;;27.27;13.48;;;;;;;;;;4969942;28;20042;-69
2022/06/08 07:28:12;;;;;;;26.92;14.68;;;;;;;;;;4969119;28;20537;-67
2022/06/08 07:30:38;;;;;;;22.73;12.85;;;;;;;;;;4969619;28;20074;-71
2022/06/08 07:33:03;;;;;;;26.63;13.27;;;;;;;;;;4970779;28;20495;-67
2022/06/08 07:35:29;;;;;;;23.58;12.55;;;;;;;;;;4973735;28;20042;-68
2022/06/08 07:37:55;;;;;;;25.77;12.25;;;;;;;;;;4976144;28;20042;-69
2022/06/08 07:40:21;;;;;;;29.02;13.35;;;;;;;;;;4962090;28;20072;-68
2022/06/08 07:42:47;;;;;;;33.30;13.77;;;;;;;;;;4969165;28;20060;-67
2022/06/08 07:45:13;;;;;;;26.65;13.07;;;;;;;;;;4972004;28;20062;-67
2022/06/08 07:50:27;;;;;;;28.00;12.63;;;;;;;;;;4970878;28;20039;-67
2022/06/08 07:52:53;;;;;;;29.50;13.02;;;;;;;;;;4965328;28;20086;-66
2022/06/08 07:55:19;;;;;;;25.85;11.75;;;;;;;;;;4961263;28;20051;-66
2022/06/08 07:57:48;;;;;;;31.05;12.63;;;;;;;;;;4957074;28;20059;-65
2022/06/08 08:00:18;;;;;;;26.70;12.43;;;;;;;;;;4962546;28;20443;-65
2022/06/08 08:02:44;;;;;;;31.75;12.30;;;;;;;;;;4965848;28;20074;-66
2022/06/08 08:05:13;;;;;;;29.42;12.05;;;;;;;;;;4966338;28;20059;-68
2022/06/08 08:07:40;;;;;;;24.40;11.95;;;;;;;;;;4968599;28;20047;-67
2022/06/08 08:10:11;;;;;;;26.42;11.10;;;;;;;;;;4970542;28;20462;-66
2022/06/08 08:12:38;;;;;;;28.98;11.43;;;;;;;;;;4971291;28;20055;-68
2022/06/08 08:15:05;;;;;;;30.45;11.45;;;;;;;;;;4961519;28;20058;-66
2022/06/08 08:17:32;;;;;;;24.30;9.77;;;;;;;;;;4967046;28;20057;-66
2022/06/08 08:19:58;;;;;;;25.42;10.38;;;;;;;;;;4971959;28;20081;-66
2022/06/08 08:22:24;;;;;;;24.63;10.18;;;;;;;;;;4965844;28;20050;-67
2022/06/08 08:24:49;;;;;;;30.25;9.80;;;;;;;;;;4972199;28;20555;-65
2022/06/08 08:27:15;;;;;;;24.27;10.43;;;;;;;;;;4972911;28;20066;-68
2022/06/08 08:29:41;;;;;;;27.02;11.55;;;;;;;;;;4974668;28;20109;-67
2022/06/08 08:32:09;;;;;;;25.92;10.00;;;;;;;;;;4970925;28;20072;-65
2022/06/08 08:34:36;;;;;;;22.45;10.07;;;;;;;;;;4973987;28;20522;-66
2022/06/08 08:37:03;;;;;;;21.45;10.13;;;;;;;;;;4972144;28;20051;-72
2022/06/08 08:39:29;;;;;;;27.40;10.10;;;;;;;;;;4970532;28;20051;-66
2022/06/08 08:44:41;;;;;;;24.45;9.95;;;;;;;;;;4966940;28;20043;-66
2022/06/08 08:47:23;;;;;;;20.88;8.77;;;;;;;;;;4971887;28;20357;-67
2022/06/08 08:50:16;;;;;;;23.33;8.85;;;;;;;;;;4966927;28;20077;-66
2022/06/08 08:52:56;;;;;;;25.20;8.75;;;;;;;;;;4970045;28;20468;-66
2022/06/08 08:56:01;;;;;;;27.42;9.43;;;;;;;;;;4970058;28;20062;-65
2022/06/08 08:58:36;;;;;;;25.33;9.13;;;;;;;;;;4950156;28;20074;-68
2022/06/08 09:01:23;;;;;;;19.65;8.35;;;;;;;;;;4969206;28;20483;-67
2022/06/08 09:04:11;;;;;;;18.88;8.15;;;;;;;;;;4963730;28;20050;-70
2022/06/08 09:06:37;;;;;;;21.90;7.38;;;;;;;;;;4952759;28;20054;-67
2022/06/08 09:09:09;;;;;;;17.70;7.50;;;;;;;;;;4969440;28;20073;-66
2022/06/08 09:11:40;;;;;;;20.63;7.28;;;;;;;;;;4959413;28;20051;-66
2022/06/08 09:14:19;;;;;;;23.20;7.30;;;;;;;;;;4967650;28;20077;-66
2022/06/08 09:16:49;;;;;;;21.33;6.63;;;;;;;;;;4963868;28;20054;-65
2022/06/08 09:19:21;;;;;;;15.82;6.32;;;;;;;;;;4969257;28;20058;-67
2022/06/08 09:21:48;;;;;;;15.10;6.10;;;;;;;;;;4971437;28;20577;-68
2022/06/08 09:24:40;;;;;;;11.20;5.43;;;;;;;;;;4972711;28;20714;-66
2022/06/08 09:27:16;;;;;;;19.50;5.82;;;;;;;;;;4970552;28;20419;-66
2022/06/08 09:30:12;;;;;;;18.48;5.15;;;;;;;;;;4970792;28;20130;-67
2022/06/08 09:32:38;;;;;;;14.63;5.72;;;;;;;;;;4964957;28;20420;-67
2022/06/08 09:35:31;;;;;;;15.95;5.47;;;;;;;;;;4970603;28;20047;-67
2022/06/08 09:38:06;;;;;;;19.10;5.07;;;;;;;;;;4966127;28;20207;-66
2022/06/08 09:40:38;;;;;;;19.23;4.93;;;;;;;;;;4960813;28;20059;-66
2022/06/08 09:43:41;;;;;;;18.10;4.97;;;;;;;;;;4969187;28;20050;-68
2022/06/08 09:52:13;;;;;;;11.45;4.20;;;;;;;;;;4964530;28;20050;-69
2022/06/08 09:54:51;;;;;;;15.20;7.47;;;;;;;;;;4960686;28;20047;-69
2022/06/08 09:57:46;;;;;;;19.77;8.00;;;;;;;;;;4968421;28;20118;-68
2022/06/08 10:00:23;;;;;;;23.00;8.60;;;;;;;;;;4963801;28;20721;-68
2022/06/08 10:03:11;;;;;;;23.23;9.68;;;;;;;;;;4963098;28;20047;-66
2022/06/08 10:06:19;;;;;;;33.90;10.77;;;;;;;;;;4953280;28;20055;-67
2022/06/08 10:08:44;;;;;;;29.58;10.05;;;;;;;;;;4920504;29;20155;-68
2022/06/08 10:11:36;;;;;;;28.10;10.77;;;;;;;;;;4926145;29;20436;-68
2022/06/08 10:14:42;;;;;;;23.70;9.35;;;;;;;;;;4926616;29;20047;-68
2022/06/08 10:17:17;;;;;;;24.33;9.63;;;;;;;;;;4924760;29;20933;-68
2022/06/08 10:19:54;;;;;;;24.10;8.80;;;;;;;;;;4928924;29;20393;-66
2022/06/08 10:22:27;;;;;;;30.95;8.98;;;;;;;;;;4920162;29;20048;-68
2022/06/08 10:25:07;;;;;;;19.02;8.57;;;;;;;;;;4920156;29;20547;-68
2022/06/08 10:27:42;;;;;;;21.08;8.57;;;;;;;;;;4927786;29;20052;-66
2022/06/08 10:30:35;;;;;;;20.13;8.25;;;;;;;;;;4926513;29;20040;-67
2022/06/08 10:33:15;;;;;;;19.48;8.82;;;;;;;;;;4926007;29;20101;-67
2022/06/08 10:35:48;;;;;;;21.88;9.48;;;;;;;;;;4923980;29;20056;-67
2022/06/08 10:38:25;;;;;;;24.27;8.73;;;;;;;;;;4923651;29;20059;-67
2022/06/08 10:41:00;;;;;;;20.55;9.57;;;;;;;;;;4926847;29;20055;-68
2022/06/08 10:43:36;;;;;;;19.65;8.48;;;;;;;;;;4954965;28;20043;-68
2022/06/08 10:46:05;;;;;;;18.85;9.48;;;;;;;;;;4957255;28;20046;-70
2022/06/08 10:48:36;;;;;;;17.67;9.80;;;;;;;;;;4961121;28;20113;-66
2022/06/08 10:51:23;;;;;;;25.13;9.75;;;;;;;;;;4966425;28;20105;-71
2022/06/08 10:56:38;;;;;;;22.85;9.88;;;;;;;;;;4962724;28;20058;-66
2022/06/08 10:59:04;;;;;;;18.40;9.07;;;;;;;;;;4961662;28;20082;-68
2022/06/08 11:01:49;;;;;;;22.88;9.55;;;;;;;;;;4967739;28;20452;-67
2022/06/08 11:04:30;;;;;;;20.17;9.18;;;;;;;;;;4959973;28;20091;-69
2022/06/08 11:07:07;;;;;;;21.85;8.80;;;;;;;;;;4963837;28;20047;-67
2022/06/08 11:09:35;;;;;;;21.20;9.70;;;;;;;;;;4968418;28;20051;-68
2022/06/08 11:12:16;;;;;;;21.98;9.30;;;;;;;;;;4965615;28;20049;-69
2022/06/08 11:14:48;;;;;;;20.10;9.73;;;;;;;;;;4970075;28;20042;-68
2022/06/08 11:17:34;;;;;;;23.02;8.93;;;;;;;;;;4959704;28;20050;-67
2022/06/08 11:20:32;;;;;;;21.23;8.70;;;;;;;;;;4966278;28;20059;-67
2022/06/08 11:23:31;;;;;;;20.00;9.20;;;;;;;;;;4961810;28;20150;-67
2022/06/08 11:26:06;;;;;;;23.88;9.85;;;;;;;;;;4966969;28;20151;-65
2022/06/08 11:28:35;;;;;;;23.35;9.63;;;;;;;;;;4966054;28;20049;-67
2022/06/08 11:31:12;;;;;;;23.25;10.30;;;;;;;;;;4965966;28;20050;-67
2022/06/08 11:34:12;;;;;;;23.73;9.05;;;;;;;;;;4959883;28;20050;-68
2022/06/08 11:36:50;;;;;;;20.33;10.07;;;;;;;;;;4958223;28;20496;-67
2022/06/08 11:39:40;;;;;;;20.92;9.50;;;;;;;;;;4965565;28;20349;-69
2022/06/08 11:42:28;;;;;;;18.05;9.25;;;;;;;;;;4963492;28;20059;-67
2022/06/08 11:45:15;;;;;;;17.83;8.98;;;;;;;;;;4964398;28;20050;-66
2022/06/08 11:48:00;;;;;;;19.55;9.15;;;;;;;;;;4959334;28;20500;-69
2022/06/08 11:50:42;;;;;;;18.20;9.00;;;;;;;;;;4966142;28;20055;-67
2022/06/08 11:53:26;;;;;;;15.43;8.88;;;;;;;;;;4961452;28;20121;-67
2022/06/08 11:56:15;;;;;;;18.95;8.57;;;;;;;;;;4962154;28;20069;-67
2022/06/08 11:58:47;;;;;;;22.65;9.55;;;;;;;;;;4962631;28;20062;-67
2022/06/08 12:01:26;;;;;;;21.17;9.27;;;;;;;;;;4959751;28;20050;-69
2022/06/08 12:04:03;;;;;;;18.55;9.38;;;;;;;;;;4965193;28;20051;-67
2022/06/08 12:06:34;;;;;;;20.55;9.10;;;;;;;;;;4961689;28;20580;-66
2022/06/08 12:09:15;;;;;;;19.00;9.23;;;;;;;;;;4967861;28;20603;-67
2022/06/08 12:11:45;;;;;;;21.50;9.32;;;;;;;;;;4962959;28;20415;-69
2022/06/08 12:14:30;;;;;;;19.67;8.85;;;;;;;;;;4961892;28;20042;-69
2022/06/08 12:17:05;;;;;;;17.00;8.45;;;;;;;;;;4968218;28;20043;-64
2022/06/08 12:19:46;;;;;;;21.77;8.10;;;;;;;;;;4966828;28;20058;-66
2022/06/08 12:22:25;;;;;;;18.52;9.00;;;;;;;;;;4976581;28;20050;-66
2022/06/08 12:25:09;;;;;;;15.80;7.90;;;;;;;;;;4961390;28;20039;-66
2022/06/08 12:27:53;;;;;;;20.95;8.55;;;;;;;;;;4967295;28;20047;-66
2022/06/08 12:30:33;;;;;;;18.80;8.20;;;;;;;;;;4982566;28;20051;-67
2022/06/08 12:33:21;;;;;;;18.17;7.70;;;;;;;;;;4969582;28;20043;-66
2022/06/08 12:36:06;;;;;;;16.20;7.60;;;;;;;;;;4972704;28;20051;-65
2022/06/08 12:38:34;;;;;;;16.05;7.40;;;;;;;;;;4969347;28;20425;-65
2022/06/08 12:41:09;;;;;;;16.00;7.03;;;;;;;;;;4976076;28;20051;-64
2022/06/08 12:43:48;;;;;;;15.98;7.95;;;;;;;;;;4970672;28;20049;-63
2022/06/08 12:46:23;;;;;;;16.30;7.90;;;;;;;;;;4964983;28;20055;-65
2022/06/08 12:48:54;;;;;;;17.33;7.38;;;;;;;;;;4972301;28;20062;-65
2022/06/08 12:51:29;;;;;;;17.23;7.32;;;;;;;;;;4969377;28;20131;-65
2022/06/08 12:53:59;;;;;;;15.93;8.27;;;;;;;;;;4972116;28;20046;-64
2022/06/08 12:56:27;;;;;;;15.45;7.55;;;;;;;;;;4965159;28;20484;-66
2022/06/08 12:58:55;;;;;;;11.52;6.68;;;;;;;;;;4963371;28;20080;-67
2022/06/08 13:01:23;;;;;;;14.40;7.25;;;;;;;;;;4956500;28;20058;-68
2022/06/08 13:03:49;;;;;;;17.58;6.72;;;;;;;;;;4969221;28;20480;-69
2022/06/08 13:06:16;;;;;;;16.65;6.32;;;;;;;;;;4962711;28;20127;-66
2022/06/08 13:08:42;;;;;;;16.98;6.60;;;;;;;;;;4958931;28;20051;-67
2022/06/08 13:11:15;;;;;;;11.98;6.15;;;;;;;;;;4959182;28;20046;-68
2022/06/08 13:13:41;;;;;;;16.95;6.80;;;;;;;;;;4961965;28;20061;-67
2022/06/08 13:16:17;;;;;;;14.48;7.05;;;;;;;;;;4969071;28;20070;-71
2022/06/08 13:18:43;;;;;;;12.55;6.28;;;;;;;;;;4980058;28;20051;-67
2022/06/08 13:21:11;;;;;;;18.02;6.65;;;;;;;;;;4967830;28;20050;-67
2022/06/08 13:23:38;;;;;;;13.10;6.13;;;;;;;;;;4962136;28;21065;-68
2022/06/08 13:26:11;;;;;;;13.30;6.88;;;;;;;;;;4969840;28;20078;-66
2022/06/08 13:28:37;;;;;;;11.93;6.28;;;;;;;;;;4968633;28;20527;-68
2022/06/08 13:31:09;;;;;;;16.42;6.68;;;;;;;;;;4965746;28;20484;-69
2022/06/08 13:36:22;;;;;;;12.30;6.00;;;;;;;;;;4962806;28;20039;-69
2022/06/08 13:38:51;;;;;;;11.73;5.57;;;;;;;;;;4971242;28;20496;-71
2022/06/08 13:41:17;;;;;;;17.35;6.60;;;;;;;;;;4959821;28;20054;-69
2022/06/08 13:43:44;;;;;;;18.17;6.43;;;;;;;;;;4972429;28;20051;-66
2022/06/08 13:46:19;;;;;;;18.33;6.70;;;;;;;;;;4965791;28;20047;-69
2022/06/08 13:48:46;;;;;;;16.75;6.80;;;;;;;;;;4968320;28;20051;-70
2022/06/08 13:51:12;;;;;;;15.45;6.50;;;;;;;;;;4975243;28;20056;-67
2022/06/08 13:53:38;;;;;;;16.50;5.90;;;;;;;;;;4973787;28;20042;-68
2022/06/08 13:56:04;;;;;;;11.80;5.18;;;;;;;;;;4963940;28;20503;-68
2022/06/08 13:58:31;;;;;;;13.65;5.18;;;;;;;;;;4976700;28;20050;-71
2022/06/08 14:01:16;;;;;;;17.33;5.13;;;;;;;;;;4974395;28;20972;-69
2022/06/08 14:03:43;;;;;;;10.35;4.65;;;;;;;;;;4962327;28;20057;-69
2022/06/08 14:14:28;;;;;;;11.50;4.28;;;;;;;;;;4967902;28;20047;-69
2022/06/08 14:16:58;;;;;;;10.45;4.38;;;;;;;;;;4961467;28;20543;-70
2022/06/08 14:19:27;;;;;;;13.30;3.83;;;;;;;;;;4956316;28;20462;-73
2022/06/08 14:21:56;;;;;;;10.45;3.42;;;;;;;;;;4968561;28;20514;-72
2022/06/08 14:24:31;;;;;;;10.90;4.28;;;;;;;;;;4958250;28;20130;-71
2022/06/08 14:26:57;;;;;;;13.60;4.03;;;;;;;;;;4957066;28;20058;-71
2022/06/08 14:29:24;;;;;;;21.60;4.57;;;;;;;;;;4971710;28;20050;-70
2022/06/08 14:31:53;;;;;;;13.52;4.32;;;;;;;;;;4959140;28;20081;-71
2022/06/08 14:34:24;;;;;;;9.65;3.17;;;;;;;;;;4967168;28;20042;-70
2022/06/08 14:36:51;;;;;;;12.82;3.63;;;;;;;;;;4968168;28;20050;-73
2022/06/08 14:39:21;;;;;;;8.48;3.83;;;;;;;;;;4968577;28;20043;-74
2022/06/08 14:41:49;;;;;;;9.85;3.10;;;;;;;;;;4968752;28;20047;-74
2022/06/08 14:44:19;;;;;;;9.32;3.30;;;;;;;;;;4966981;28;20074;-73
2022/06/08 14:46:46;;;;;;;11.02;2.97;;;;;;;;;;4968730;28;20134;-72
2022/06/08 14:49:15;;;;;;;10.45;2.58;;;;;;;;;;4961982;28;20415;-73
2022/06/08 14:51:42;;;;;;;10.10;2.88;;;;;;;;;;4965243;28;20039;-72
2022/06/08 14:54:23;;;;;;;7.22;2.60;;;;;;;;;;4969238;28;20124;-70
2022/06/08 14:56:58;;;;;;;7.00;2.40;;;;;;;;;;4969317;28;20076;-71
2022/06/08 14:59:25;;;;;;;6.68;2.50;;;;;;;;;;4969456;28;20094;-71
2022/06/08 15:01:55;;;;;;;9.80;2.95;;;;;;;;;;4969113;28;20046;-70
2022/06/08 15:04:24;;;;;;;8.45;2.60;;;;;;;;;;4968452;28;20055;-72
2022/06/08 15:06:51;;;;;;;9.68;2.30;;;;;;;;;;4968540;28;20134;-74
2022/06/08 15:09:20;;;;;;;7.60;2.80;;;;;;;;;;4969187;28;20043;-74
2022/06/08 15:11:59;;;;;;;7.47;2.63;;;;;;;;;;4961069;28;20083;-69
2022/06/08 15:14:28;;;;;;;7.10;2.63;;;;;;;;;;4956155;28;20050;-72
2022/06/08 15:16:54;;;;;;;6.68;2.10;;;;;;;;;;4958214;28;20039;-70
2022/06/08 15:19:29;;;;;;;5.55;2.35;;;;;;;;;;4945545;28;20051;-69
2022/06/08 15:21:57;;;;;;;9.10;2.30;;;;;;;;;;4960699;28;20054;-72
2022/06/08 15:24:25;;;;;;;7.50;2.50;;;;;;;;;;4957664;28;20063;-69